createdAt,value
2023-04-20T00:01:36.275Z,7.10
2023-04-20T00:04:04.567Z,7.03
2023-04-20T00:06:34.166Z,5.73
2023-04-20T00:09:02.123Z,5.80
2023-04-20T00:11:30.052Z,6.33
2023-04-20T00:13:57.553Z,6.00
2023-04-20T00:16:26.252Z,5.90
2023-04-20T00:18:54.223Z,5.50
2023-04-20T00:21:25.207Z,4.97
2023-04-20T00:23:52.698Z,4.73
2023-04-20T00:26:21.263Z,4.73
2023-04-20T00:28:49.226Z,5.43
2023-04-20T00:31:16.853Z,4.70
2023-04-20T00:33:44.518Z,4.93
2023-04-20T00:36:12.387Z,4.80
2023-04-20T00:38:39.852Z,4.60
2023-04-20T00:41:07.784Z,4.53
2023-04-20T00:43:36.171Z,4.63
2023-04-20T00:46:04.026Z,4.80
2023-04-20T00:48:31.938Z,4.57
2023-04-20T00:50:59.451Z,4.40
2023-04-20T00:53:26.638Z,4.80
2023-04-20T00:58:29.854Z,4.53
2023-04-20T01:00:57.767Z,4.30
2023-04-20T01:03:25.741Z,4.03
2023-04-20T01:05:54.027Z,3.80
2023-04-20T01:08:26.171Z,4.03
2023-04-20T01:10:54.508Z,4.50
2023-04-20T01:13:22.213Z,4.00
2023-04-20T01:15:50.078Z,4.07
2023-04-20T01:18:20.063Z,4.60
2023-04-20T01:20:48.025Z,4.13
2023-04-20T01:23:16.069Z,4.47
2023-04-20T01:25:44.182Z,4.63
2023-04-20T01:28:14.542Z,4.00
2023-04-20T01:30:43.018Z,4.37
2023-04-20T01:33:10.706Z,4.10
2023-04-20T01:35:38.940Z,4.20
2023-04-20T01:38:06.892Z,4.10
2023-04-20T01:40:35.354Z,4.13
2023-04-20T01:43:03.289Z,4.00
2023-04-20T01:45:31.426Z,3.97
2023-04-20T01:47:59.594Z,4.63
2023-04-20T01:50:27.240Z,4.40
2023-04-20T01:52:55.666Z,4.07
2023-04-20T01:55:23.636Z,4.17
2023-04-20T01:57:51.719Z,4.73
2023-04-20T02:00:20.423Z,4.50
2023-04-20T02:02:48.463Z,4.50
2023-04-20T02:05:16.224Z,4.43
2023-04-20T02:07:43.742Z,4.33
2023-04-20T02:10:12.245Z,4.60
2023-04-20T02:12:39.895Z,3.90
2023-04-20T02:15:10.318Z,4.47
2023-04-20T02:17:38.322Z,4.47
2023-04-20T02:20:11.969Z,4.23
2023-04-20T02:22:40.162Z,4.10
2023-04-20T02:25:07.992Z,4.50
2023-04-20T02:27:35.700Z,4.63
2023-04-20T02:30:04.341Z,4.50
2023-04-20T02:32:32.339Z,4.30
2023-04-20T02:35:00.069Z,4.70
2023-04-20T02:37:27.721Z,4.90
2023-04-20T02:39:55.775Z,5.10
2023-04-20T02:42:23.877Z,4.70
2023-04-20T02:44:52.999Z,4.77
2023-04-20T02:47:20.900Z,4.97
2023-04-20T02:49:48.486Z,4.83
2023-04-20T02:52:15.714Z,4.77
2023-04-20T02:54:43.582Z,4.97
2023-04-20T02:57:11.803Z,4.87
2023-04-20T02:59:39.875Z,5.03
2023-04-20T03:02:08.150Z,4.43
2023-04-20T03:04:35.547Z,5.13
2023-04-20T03:07:04.971Z,4.43
2023-04-20T03:09:32.899Z,5.17
2023-04-20T03:12:02.634Z,4.63
2023-04-20T03:14:31.195Z,4.87
2023-04-20T03:16:59.476Z,5.13
2023-04-20T03:19:27.652Z,5.60
2023-04-20T03:21:55.804Z,5.43
2023-04-20T03:24:24.209Z,4.53
2023-04-20T03:26:52.306Z,5.00
2023-04-20T03:29:20.569Z,6.40
2023-04-20T03:31:48.809Z,4.70
2023-04-20T03:34:16.489Z,5.30
2023-04-20T03:36:44.537Z,4.77
2023-04-20T03:39:12.573Z,4.97
2023-04-20T03:41:40.259Z,5.03
2023-04-20T03:44:08.635Z,5.00
2023-04-20T03:46:36.543Z,5.33
2023-04-20T03:49:04.587Z,5.13
2023-04-20T03:51:32.621Z,4.40
2023-04-20T03:54:00.598Z,5.20
2023-04-20T03:56:28.598Z,5.47
2023-04-20T03:58:56.188Z,5.07
2023-04-20T04:01:24.852Z,5.40
2023-04-20T04:03:52.940Z,5.00
2023-04-20T04:06:20.766Z,5.07
2023-04-20T04:08:48.821Z,4.87
2023-04-20T04:11:16.640Z,5.77
2023-04-20T04:13:44.609Z,5.00
2023-04-20T04:16:12.522Z,5.47
2023-04-20T04:18:44.016Z,5.53
2023-04-20T04:21:11.592Z,5.80
2023-04-20T04:23:39.232Z,5.83
2023-04-20T04:26:07.433Z,6.13
2023-04-20T04:28:35.683Z,5.43
2023-04-20T04:31:06.091Z,5.90
2023-04-20T04:33:34.352Z,5.73
2023-04-20T04:36:02.657Z,4.70
2023-04-20T04:38:31.718Z,5.43
2023-04-20T04:40:59.773Z,5.00
2023-04-20T04:43:28.192Z,4.73
2023-04-20T04:45:58.504Z,5.77
2023-04-20T04:48:25.724Z,5.43
2023-04-20T04:50:53.705Z,5.10
2023-04-20T04:53:21.839Z,5.10
2023-04-20T04:55:49.881Z,5.07
2023-04-20T04:58:17.893Z,5.17
2023-04-20T05:00:45.483Z,4.37
2023-04-20T05:03:13.735Z,4.33
2023-04-20T05:05:42.125Z,4.50
2023-04-20T05:08:10.046Z,4.57
2023-04-20T05:10:38.162Z,4.77
2023-04-20T05:13:05.915Z,4.40
2023-04-20T05:15:34.641Z,4.77
2023-04-20T05:18:02.835Z,4.23
2023-04-20T05:20:31.247Z,4.43
2023-04-20T05:22:58.814Z,4.57
2023-04-20T05:25:26.797Z,4.30
2023-04-20T05:27:54.976Z,5.07
2023-04-20T05:30:22.581Z,4.70
2023-04-20T05:32:52.346Z,4.80
2023-04-20T05:35:21.600Z,4.80
2023-04-20T05:37:49.585Z,5.00
2023-04-20T05:40:17.383Z,4.83
2023-04-20T05:42:45.382Z,5.33
2023-04-20T05:45:13.049Z,4.73
2023-04-20T05:47:41.332Z,4.77
2023-04-20T05:50:11.658Z,4.90
2023-04-20T05:52:39.376Z,4.50
2023-04-20T05:55:09.426Z,5.10
2023-04-20T05:57:42.986Z,4.80
2023-04-20T06:00:13.922Z,4.70
2023-04-20T06:02:41.627Z,5.40
2023-04-20T06:05:11.392Z,4.83
2023-04-20T06:07:39.283Z,5.23
2023-04-20T06:10:09.543Z,4.27
2023-04-20T06:12:37.386Z,4.37
2023-04-20T06:15:09.141Z,3.67
2023-04-20T06:17:41.178Z,3.80
2023-04-20T06:20:12.112Z,4.50
2023-04-20T06:23:03.567Z,4.23
2023-04-20T06:25:31.965Z,4.57
2023-04-20T06:28:00.265Z,4.03
2023-04-20T06:30:28.394Z,3.90
2023-04-20T06:32:56.513Z,4.10
2023-04-20T06:35:24.594Z,3.80
2023-04-20T06:37:52.217Z,4.23
2023-04-20T06:40:19.592Z,4.27
2023-04-20T06:42:47.984Z,4.70
2023-04-20T06:45:15.773Z,5.00
2023-04-20T06:47:44.876Z,4.77
2023-04-20T06:50:13.110Z,4.97
2023-04-20T06:52:42.109Z,4.97
2023-04-20T06:55:10.211Z,4.70
2023-04-20T06:57:39.956Z,4.63
2023-04-20T07:00:09.805Z,4.87
2023-04-20T07:02:47.572Z,4.40
2023-04-20T07:05:15.934Z,4.00
2023-04-20T07:07:43.595Z,4.20
2023-04-20T07:10:13.570Z,4.30
2023-04-20T07:12:43.203Z,4.23
2023-04-20T07:15:11.755Z,3.67
2023-04-20T07:17:39.907Z,3.43
2023-04-20T07:20:10.232Z,2.90
2023-04-20T07:22:38.672Z,2.53
2023-04-20T07:25:08.613Z,2.70
2023-04-20T07:27:37.296Z,2.93
2023-04-20T07:30:08.263Z,2.70
2023-04-20T07:32:36.102Z,2.73
2023-04-20T07:35:04.350Z,2.57
2023-04-20T07:37:32.108Z,2.97
2023-04-20T07:40:00.198Z,3.07
2023-04-20T07:42:27.955Z,2.53
2023-04-20T07:44:55.657Z,2.90
2023-04-20T07:47:23.767Z,2.50
2023-04-20T07:49:52.051Z,2.33
2023-04-20T07:52:20.403Z,2.87
2023-04-20T07:54:48.010Z,2.63
2023-04-20T07:57:15.629Z,2.60
2023-04-20T07:59:43.441Z,2.40
2023-04-20T08:02:12.308Z,2.40
2023-04-20T08:04:40.615Z,2.90
2023-04-20T08:07:09.568Z,2.50
2023-04-20T08:09:37.452Z,2.40
2023-04-20T08:12:06.849Z,2.53
2023-04-20T08:14:34.820Z,2.20
2023-04-20T08:17:02.734Z,2.30
2023-04-20T08:19:30.346Z,2.50
2023-04-20T08:21:59.353Z,2.27
2023-04-20T08:24:27.580Z,2.10
2023-04-20T08:26:55.689Z,2.50
2023-04-20T08:29:23.641Z,2.83
2023-04-20T08:31:51.872Z,2.60
2023-04-20T08:34:19.752Z,2.63
2023-04-20T08:36:47.471Z,2.70
2023-04-20T08:39:19.349Z,3.87
2023-04-20T08:41:48.089Z,3.10
2023-04-20T08:44:15.760Z,2.97
2023-04-20T08:46:43.468Z,2.60
2023-04-20T08:49:13.046Z,2.73
2023-04-20T08:51:41.724Z,2.60
2023-04-20T08:54:10.633Z,3.07
2023-04-20T08:56:39.583Z,2.33
2023-04-20T08:59:10.243Z,2.47
2023-04-20T09:01:39.433Z,2.43
2023-04-20T09:04:20.099Z,2.60
2023-04-20T09:06:51.511Z,2.27
2023-04-20T09:09:42.333Z,2.70
2023-04-20T09:12:10.412Z,2.93
2023-04-20T09:14:44.648Z,3.00
2023-04-20T09:17:14.800Z,2.73
2023-04-20T09:19:44.608Z,2.97
2023-04-20T09:22:15.084Z,2.67
2023-04-20T09:24:42.809Z,2.83
2023-04-20T09:27:16.684Z,2.67
2023-04-20T09:29:44.362Z,3.33
2023-04-20T09:32:43.157Z,2.33
2023-04-20T09:35:11.048Z,2.33
2023-04-20T09:37:48.312Z,3.23
2023-04-20T09:40:16.551Z,2.47
2023-04-20T09:42:44.648Z,2.20
2023-04-20T09:45:16.521Z,2.30
2023-04-20T09:47:44.505Z,3.87
2023-04-20T09:50:24.848Z,2.33
2023-04-20T09:52:54.297Z,2.20
2023-04-20T09:55:21.855Z,2.13
2023-04-20T09:57:49.944Z,2.17
2023-04-20T10:00:19.911Z,2.40
2023-04-20T10:02:48.551Z,2.20
2023-04-20T10:05:17.049Z,2.47
2023-04-20T10:07:44.708Z,2.30
2023-04-20T10:10:15.796Z,2.57
2023-04-20T10:12:48.914Z,2.83
2023-04-20T10:15:16.715Z,3.20
2023-04-20T10:17:44.127Z,2.90
2023-04-20T10:20:21.234Z,3.50
2023-04-20T10:22:49.004Z,3.67
2023-04-20T10:25:19.445Z,3.30
2023-04-20T10:28:21.357Z,3.70
2023-04-20T10:30:52.342Z,3.63
2023-04-20T10:33:20.384Z,4.70
2023-04-20T10:36:10.259Z,5.00
2023-04-20T10:38:38.264Z,4.83
2023-04-20T10:41:13.798Z,4.60
2023-04-20T10:43:43.356Z,4.60
2023-04-20T10:46:26.803Z,5.07
2023-04-20T10:48:56.054Z,4.53
2023-04-20T10:51:43.560Z,4.33
2023-04-20T10:54:11.569Z,5.07
2023-04-20T10:56:46.569Z,5.03
2023-04-20T11:01:47.578Z,5.43
2023-04-20T11:04:18.300Z,5.57
2023-04-20T11:06:48.144Z,5.17
2023-04-20T11:09:23.663Z,5.43
2023-04-20T11:12:29.719Z,5.30
2023-04-20T11:14:58.772Z,5.20
2023-04-20T11:17:36.464Z,5.70
2023-04-20T11:20:11.076Z,5.40
2023-04-20T11:22:39.580Z,6.33
2023-04-20T11:25:12.654Z,5.70
2023-04-20T11:27:41.292Z,5.80
2023-04-20T11:30:10.098Z,5.13
2023-04-20T11:32:38.383Z,6.20
2023-04-20T11:35:08.782Z,5.73
2023-04-20T11:37:51.572Z,6.20
2023-04-20T11:40:26.681Z,6.47
2023-04-20T11:42:56.337Z,6.20
2023-04-20T11:45:24.514Z,6.13
2023-04-20T11:47:52.757Z,6.60
2023-04-20T11:50:21.233Z,6.67
2023-04-20T11:52:49.629Z,5.63
2023-04-20T11:55:17.849Z,5.70
2023-04-20T11:57:48.392Z,6.03
2023-04-20T12:00:18.170Z,6.00
2023-04-20T12:02:45.889Z,6.13
2023-04-20T12:05:13.853Z,6.07
2023-04-20T12:07:41.894Z,7.10
2023-04-20T12:10:11.583Z,6.40
2023-04-20T12:12:39.515Z,6.10
2023-04-20T12:15:11.527Z,6.37
2023-04-20T12:17:39.873Z,6.13
2023-04-20T12:20:12.689Z,5.80
2023-04-20T12:22:41.013Z,6.00
2023-04-20T12:25:09.947Z,5.80
2023-04-20T12:27:38.036Z,5.70
2023-04-20T12:30:09.388Z,5.73
2023-04-20T12:32:40.432Z,5.67
2023-04-20T12:35:09.576Z,5.33
2023-04-20T12:37:37.642Z,4.90
2023-04-20T12:40:08.825Z,4.87
2023-04-20T12:42:36.518Z,4.80
2023-04-20T12:45:05.300Z,4.90
2023-04-20T12:47:32.913Z,4.83
2023-04-20T12:50:00.623Z,4.78
2023-04-20T12:52:29.799Z,4.30
2023-04-20T12:54:57.776Z,4.18
2023-04-20T12:57:25.599Z,3.95
2023-04-20T12:59:53.640Z,4.13
2023-04-20T13:02:22.519Z,4.50
2023-04-20T13:04:50.794Z,4.22
2023-04-20T13:07:18.492Z,4.40
2023-04-20T13:09:45.641Z,4.47
2023-04-20T13:12:13.780Z,4.07
2023-04-20T13:14:41.825Z,4.10
2023-04-20T13:17:10.016Z,4.10
2023-04-20T13:19:37.874Z,3.70
2023-04-20T13:22:06.917Z,4.63
2023-04-20T13:24:34.678Z,4.22
2023-04-20T13:27:02.588Z,4.60
2023-04-20T13:29:30.440Z,4.28
2023-04-20T13:31:58.602Z,3.70
2023-04-20T13:34:26.120Z,3.63
2023-04-20T13:36:54.179Z,3.67
2023-04-20T13:39:22.058Z,3.77
2023-04-20T13:41:50.234Z,3.60
2023-04-20T13:44:17.987Z,3.80
2023-04-20T13:46:45.922Z,3.87
2023-04-20T13:49:14.429Z,3.37
2023-04-20T13:51:42.440Z,3.03
2023-04-20T13:54:10.394Z,3.23
2023-04-20T13:56:38.505Z,3.30
2023-04-20T13:59:06.404Z,3.10
2023-04-20T14:01:34.961Z,3.00
2023-04-20T14:04:03.352Z,3.10
2023-04-20T14:06:31.208Z,3.13
2023-04-20T14:08:58.678Z,2.97
2023-04-20T14:11:26.909Z,3.27
2023-04-20T14:13:54.569Z,2.93
2023-04-20T14:16:23.015Z,2.77
2023-04-20T14:18:50.586Z,3.47
2023-04-20T14:21:25.720Z,3.40
2023-04-20T14:23:54.678Z,3.43
2023-04-20T14:26:22.202Z,4.00
2023-04-20T14:28:51.820Z,3.97
2023-04-20T14:31:19.939Z,4.00
2023-04-20T14:33:47.804Z,4.03
2023-04-20T14:36:15.315Z,3.80
2023-04-20T14:38:43.660Z,3.80
2023-04-20T14:41:11.263Z,4.60
2023-04-20T14:43:39.230Z,3.87
2023-04-20T14:46:07.584Z,4.47
2023-04-20T14:48:38.703Z,4.20
2023-04-20T14:51:07.287Z,4.30
2023-04-20T14:53:34.820Z,4.10
2023-04-20T14:56:02.855Z,4.43
2023-04-20T14:58:30.817Z,4.73
2023-04-20T15:00:58.782Z,3.63
2023-04-20T15:03:27.179Z,4.20
2023-04-20T15:05:59.403Z,3.90
2023-04-20T15:08:27.773Z,3.77
2023-04-20T15:10:56.833Z,3.90
2023-04-20T15:13:25.057Z,3.80
2023-04-20T15:15:54.986Z,4.20
2023-04-20T15:18:23.662Z,4.33
2023-04-20T15:20:53.977Z,4.13
2023-04-20T15:23:24.758Z,4.23
2023-04-20T15:25:53.450Z,3.80
2023-04-20T15:28:21.038Z,3.70
2023-04-20T15:30:49.016Z,4.10
2023-04-20T15:33:17.520Z,4.40
2023-04-20T15:35:48.307Z,3.63
2023-04-20T15:38:16.578Z,4.03
2023-04-20T15:40:45.129Z,4.10
2023-04-20T15:43:13.382Z,3.83
2023-04-20T15:45:42.867Z,3.93
2023-04-20T15:48:13.118Z,4.50
2023-04-20T15:50:40.584Z,4.13
2023-04-20T15:53:08.255Z,3.70
2023-04-20T15:55:39.504Z,4.03
2023-04-20T15:58:07.295Z,3.70
2023-04-20T16:00:35.183Z,5.37
2023-04-20T16:03:03.338Z,5.20
2023-04-20T16:05:30.982Z,3.93
2023-04-20T16:07:58.955Z,3.57
2023-04-20T16:10:27.732Z,3.13
2023-04-20T16:12:56.108Z,2.93
2023-04-20T16:15:23.588Z,2.90
2023-04-20T16:17:51.103Z,2.43
2023-04-20T16:20:18.936Z,2.33
2023-04-20T16:22:46.429Z,2.10
2023-04-20T16:25:22.828Z,2.13
2023-04-20T16:27:51.723Z,2.27
2023-04-20T16:30:19.468Z,2.30
2023-04-20T16:32:47.115Z,2.30
2023-04-20T16:35:14.817Z,2.17
2023-04-20T16:37:42.785Z,2.70
2023-04-20T16:40:11.838Z,2.33
2023-04-20T16:42:39.922Z,2.53
2023-04-20T16:45:10.195Z,2.40
2023-04-20T16:47:38.279Z,2.20
2023-04-20T16:50:09.276Z,2.60
2023-04-20T16:52:37.123Z,2.43
2023-04-20T16:55:06.454Z,2.53
2023-04-20T16:57:34.042Z,3.13
2023-04-20T17:00:02.251Z,2.53
2023-04-20T17:02:33.184Z,2.47
2023-04-20T17:05:00.733Z,2.80
2023-04-20T17:07:29.228Z,2.27
2023-04-20T17:09:57.445Z,2.60
2023-04-20T17:12:25.628Z,2.00
2023-04-20T17:14:53.090Z,2.63
2023-04-20T17:17:21.106Z,2.30
2023-04-20T17:19:52.146Z,2.37
2023-04-20T17:22:20.065Z,3.53
2023-04-20T17:24:48.092Z,2.23
2023-04-20T17:27:16.128Z,2.23
2023-04-20T17:29:44.937Z,2.00
2023-04-20T17:32:13.409Z,2.37
2023-04-20T17:34:41.958Z,2.43
2023-04-20T17:37:13.130Z,2.40
2023-04-20T17:39:40.889Z,4.93
2023-04-20T17:42:08.008Z,2.90
2023-04-20T17:44:36.196Z,2.67
2023-04-20T17:47:04.312Z,2.50
2023-04-20T17:49:32.641Z,2.83
2023-04-20T17:52:00.624Z,2.80
2023-04-20T17:54:28.837Z,2.60
2023-04-20T17:56:58.148Z,2.40
2023-04-20T17:59:25.852Z,3.00
2023-04-20T18:01:54.111Z,2.80
2023-04-20T18:04:24.839Z,3.07
2023-04-20T18:06:52.795Z,3.10
2023-04-20T18:09:20.515Z,2.97
2023-04-20T18:11:48.506Z,2.80
2023-04-20T18:14:16.604Z,3.30
2023-04-20T18:16:44.630Z,2.93
2023-04-20T18:19:12.835Z,3.40
2023-04-20T18:21:41.007Z,3.00
2023-04-20T18:24:08.997Z,3.10
2023-04-20T18:26:37.146Z,3.67
2023-04-20T18:29:04.845Z,3.47
2023-04-20T18:31:35.491Z,3.27
2023-04-20T18:34:03.420Z,3.43
2023-04-20T18:36:32.229Z,3.53
2023-04-20T18:38:59.945Z,3.67
2023-04-20T18:41:29.405Z,3.80
2023-04-20T18:43:57.017Z,3.80
2023-04-20T18:46:25.779Z,3.70
2023-04-20T18:48:55.932Z,3.23
2023-04-20T18:51:23.778Z,3.50
2023-04-20T18:53:51.547Z,3.47
2023-04-20T18:56:19.966Z,3.53
2023-04-20T18:58:48.700Z,3.03
2023-04-20T19:01:16.560Z,3.43
2023-04-20T19:03:47.669Z,3.17
2023-04-20T19:06:16.359Z,2.80
2023-04-20T19:08:43.978Z,3.47
2023-04-20T19:11:12.461Z,2.90
2023-04-20T19:13:44.509Z,2.80
2023-04-20T19:16:12.486Z,3.40
2023-04-20T19:18:40.324Z,2.63
2023-04-20T19:21:07.530Z,3.53
2023-04-20T19:23:36.306Z,3.10
2023-04-20T19:26:04.589Z,3.27
2023-04-20T19:28:32.653Z,2.90
2023-04-20T19:31:00.458Z,3.13
2023-04-20T19:33:27.976Z,2.87
2023-04-20T19:35:56.139Z,2.90
2023-04-20T19:38:26.538Z,3.00
2023-04-20T19:40:54.288Z,3.03
2023-04-20T19:43:23.236Z,2.67
2023-04-20T19:45:51.479Z,3.00
2023-04-20T19:48:18.989Z,2.87
2023-04-20T19:50:46.917Z,3.30
2023-04-20T19:53:15.501Z,3.03
2023-04-20T19:55:43.224Z,2.83
2023-04-20T19:58:11.052Z,3.20
2023-04-20T20:00:38.922Z,2.90
2023-04-20T20:03:08.275Z,3.23
2023-04-20T20:05:36.186Z,3.17
2023-04-20T20:08:04.409Z,3.63
2023-04-20T20:10:32.632Z,3.90
2023-04-20T20:13:00.233Z,4.00
2023-04-20T20:15:28.223Z,4.17
2023-04-20T20:17:55.947Z,4.43
2023-04-20T20:20:23.932Z,4.40
2023-04-20T20:22:51.472Z,5.17
2023-04-20T20:25:22.076Z,5.23
2023-04-20T20:27:55.887Z,5.60
2023-04-20T20:30:24.055Z,5.67
2023-04-20T20:32:51.825Z,4.60
2023-04-20T20:35:19.898Z,4.53
2023-04-20T20:37:48.484Z,4.43
2023-04-20T20:40:16.011Z,4.03
2023-04-20T20:42:45.369Z,3.90
2023-04-20T20:45:13.303Z,4.03
2023-04-20T20:47:41.115Z,3.53
2023-04-20T20:50:10.080Z,4.00
2023-04-20T20:52:38.229Z,4.93
2023-04-20T20:55:06.692Z,4.23
2023-04-20T20:57:34.365Z,4.50
2023-04-20T21:00:02.044Z,4.30
2023-04-20T21:02:30.039Z,4.10
2023-04-20T21:05:00.482Z,4.07
2023-04-20T21:07:28.059Z,3.47
2023-04-20T21:09:55.796Z,4.17
2023-04-20T21:12:23.370Z,3.73
2023-04-20T21:14:52.247Z,3.60
2023-04-20T21:17:20.429Z,3.43
2023-04-20T21:19:47.840Z,3.40
2023-04-20T21:22:15.498Z,3.23
2023-04-20T21:24:44.197Z,3.70
2023-04-20T21:27:11.947Z,3.53
2023-04-20T21:29:39.873Z,3.50
2023-04-20T21:32:07.287Z,3.50
2023-04-20T21:34:35.028Z,3.37
2023-04-20T21:37:06.233Z,3.60
2023-04-20T21:39:34.177Z,3.47
2023-04-20T21:42:03.675Z,3.43
2023-04-20T21:44:31.596Z,3.67
2023-04-20T21:46:59.153Z,3.73
2023-04-20T21:49:27.538Z,3.83
2023-04-20T21:51:55.275Z,3.57
2023-04-20T21:54:23.196Z,3.70
2023-04-20T21:56:50.722Z,3.73
2023-04-20T21:59:20.480Z,3.47
2023-04-20T22:01:48.300Z,3.40
2023-04-20T22:04:16.893Z,4.13
2023-04-20T22:06:45.064Z,3.67
2023-04-20T22:09:13.449Z,3.53
2023-04-20T22:11:41.060Z,3.47
2023-04-20T22:14:09.008Z,2.97
2023-04-20T22:16:36.534Z,3.43
2023-04-20T22:19:04.573Z,3.40
2023-04-20T22:21:32.204Z,3.30
2023-04-20T22:23:59.417Z,2.87
2023-04-20T22:26:27.436Z,3.27
2023-04-20T22:28:55.505Z,3.73
2023-04-20T22:31:23.060Z,3.30
2023-04-20T22:33:51.035Z,3.10
2023-04-20T22:36:18.957Z,3.13
2023-04-20T22:38:46.992Z,3.47
2023-04-20T22:41:17.310Z,3.33
2023-04-20T22:43:45.202Z,2.97
2023-04-20T22:46:13.299Z,3.10
2023-04-20T22:48:41.782Z,3.33
2023-04-20T22:51:09.766Z,3.13
2023-04-20T22:53:37.771Z,2.83
2023-04-20T22:56:08.716Z,3.17
2023-04-20T22:58:36.766Z,3.10
2023-04-20T23:01:04.433Z,3.07
2023-04-20T23:03:36.336Z,2.93
2023-04-20T23:06:05.184Z,3.33
2023-04-20T23:08:33.575Z,2.90
2023-04-20T23:11:01.557Z,3.40
2023-04-20T23:13:29.208Z,3.13
2023-04-20T23:15:57.205Z,3.13
2023-04-20T23:18:25.368Z,3.10
2023-04-20T23:20:53.134Z,3.00
2023-04-20T23:23:21.100Z,2.90
2023-04-20T23:25:49.157Z,3.60
2023-04-20T23:28:17.070Z,3.30
2023-04-20T23:30:45.260Z,3.40
2023-04-20T23:33:13.370Z,3.30
2023-04-20T23:35:41.135Z,3.53
2023-04-20T23:38:09.286Z,3.27
2023-04-20T23:40:37.298Z,3.37
2023-04-20T23:43:05.367Z,2.87
2023-04-20T23:45:33.421Z,3.13
2023-04-20T23:48:01.749Z,2.83
2023-04-20T23:50:29.499Z,3.10
2023-04-20T23:52:57.746Z,3.17
2023-04-20T23:55:25.469Z,3.23
2023-04-20T23:57:54.417Z,2.97
